sensor_id;sensor_type;location;lat;lon;timestamp;P1;durP1;ratioP1;P2;durP2;ratioP2
12535;SDS011;6334;48.696;2.114;2023-05-07T00:01:31;1.40;;;1.30;;
12535;SDS011;6334;48.696;2.114;2023-05-07T00:04:03;1.57;;;1.00;;
12535;SDS011;6334;48.696;2.114;2023-05-07T00:06:34;1.70;;;1.37;;
12535;SDS011;6334;48.696;2.114;2023-05-07T00:09:03;0.93;;;0.80;;
12535;SDS011;6334;48.696;2.114;2023-05-07T00:11:34;1.08;;;0.80;;
12535;SDS011;6334;48.696;2.114;2023-05-07T00:14:05;0.70;;;0.70;;
12535;SDS011;6334;48.696;2.114;2023-05-07T00:16:34;1.10;;;1.00;;
12535;SDS011;6334;48.696;2.114;2023-05-07T00:19:05;0.97;;;0.97;;
12535;SDS011;6334;48.696;2.114;2023-05-07T00:21:35;0.50;;;0.50;;
12535;SDS011;6334;48.696;2.114;2023-05-07T00:24:06;2.65;;;0.93;;
12535;SDS011;6334;48.696;2.114;2023-05-07T00:26:37;0.73;;;0.73;;
12535;SDS011;6334;48.696;2.114;2023-05-07T00:29:08;0.77;;;0.77;;
12535;SDS011;6334;48.696;2.114;2023-05-07T00:31:39;0.57;;;0.57;;
12535;SDS011;6334;48.696;2.114;2023-05-07T00:34:10;0.77;;;0.68;;
12535;SDS011;6334;48.696;2.114;2023-05-07T00:36:39;0.80;;;0.80;;
12535;SDS011;6334;48.696;2.114;2023-05-07T00:39:10;1.17;;;0.90;;
12535;SDS011;6334;48.696;2.114;2023-05-07T00:41:39;1.83;;;1.00;;
12535;SDS011;6334;48.696;2.114;2023-05-07T00:44:09;2.66;;;0.82;;
12535;SDS011;6334;48.696;2.114;2023-05-07T00:46:40;1.27;;;0.70;;
12535;SDS011;6334;48.696;2.114;2023-05-07T00:49:10;1.50;;;0.70;;
12535;SDS011;6334;48.696;2.114;2023-05-07T00:51:41;1.40;;;0.70;;
12535;SDS011;6334;48.696;2.114;2023-05-07T00:54:12;1.13;;;1.07;;
12535;SDS011;6334;48.696;2.114;2023-05-07T00:56:44;1.57;;;1.17;;
12535;SDS011;6334;48.696;2.114;2023-05-07T00:59:15;0.73;;;0.70;;
12535;SDS011;6334;48.696;2.114;2023-05-07T01:01:44;3.55;;;1.12;;
12535;SDS011;6334;48.696;2.114;2023-05-07T01:04:14;0.83;;;0.73;;
12535;SDS011;6334;48.696;2.114;2023-05-07T01:06:45;1.27;;;1.17;;
12535;SDS011;6334;48.696;2.114;2023-05-07T01:09:15;1.27;;;0.80;;
12535;SDS011;6334;48.696;2.114;2023-05-07T01:11:46;0.93;;;0.90;;
12535;SDS011;6334;48.696;2.114;2023-05-07T01:14:16;1.40;;;0.77;;
12535;SDS011;6334;48.696;2.114;2023-05-07T01:16:47;1.27;;;1.03;;
12535;SDS011;6334;48.696;2.114;2023-05-07T01:19:17;2.33;;;1.12;;
12535;SDS011;6334;48.696;2.114;2023-05-07T01:21:48;1.03;;;0.60;;
12535;SDS011;6334;48.696;2.114;2023-05-07T01:24:19;2.70;;;1.13;;
12535;SDS011;6334;48.696;2.114;2023-05-07T01:26:50;6.17;;;1.13;;
12535;SDS011;6334;48.696;2.114;2023-05-07T01:29:22;0.77;;;0.77;;
12535;SDS011;6334;48.696;2.114;2023-05-07T01:31:53;1.73;;;0.93;;
12535;SDS011;6334;48.696;2.114;2023-05-07T01:34:23;0.77;;;0.77;;
12535;SDS011;6334;48.696;2.114;2023-05-07T01:36:53;2.37;;;1.10;;
12535;SDS011;6334;48.696;2.114;2023-05-07T01:39:27;1.83;;;1.10;;
12535;SDS011;6334;48.696;2.114;2023-05-07T01:41:56;1.37;;;0.83;;
12535;SDS011;6334;48.696;2.114;2023-05-07T01:44:26;2.17;;;1.15;;
12535;SDS011;6334;48.696;2.114;2023-05-07T01:46:57;1.07;;;0.83;;
12535;SDS011;6334;48.696;2.114;2023-05-07T01:49:28;0.70;;;0.70;;
12535;SDS011;6334;48.696;2.114;2023-05-07T01:51:59;1.27;;;1.00;;
12535;SDS011;6334;48.696;2.114;2023-05-07T01:54:31;3.73;;;0.80;;
12535;SDS011;6334;48.696;2.114;2023-05-07T01:57:04;1.60;;;0.67;;
12535;SDS011;6334;48.696;2.114;2023-05-07T01:59:35;0.83;;;0.83;;
12535;SDS011;6334;48.696;2.114;2023-05-07T02:02:07;4.56;;;1.25;;
12535;SDS011;6334;48.696;2.114;2023-05-07T02:04:38;1.93;;;1.27;;
12535;SDS011;6334;48.696;2.114;2023-05-07T02:07:08;0.73;;;0.73;;
12535;SDS011;6334;48.696;2.114;2023-05-07T02:09:38;1.84;;;1.50;;
12535;SDS011;6334;48.696;2.114;2023-05-07T02:12:08;2.47;;;1.05;;
12535;SDS011;6334;48.696;2.114;2023-05-07T02:14:38;0.98;;;0.80;;
12535;SDS011;6334;48.696;2.114;2023-05-07T02:17:08;1.23;;;1.12;;
12535;SDS011;6334;48.696;2.114;2023-05-07T02:19:41;2.46;;;1.10;;
12535;SDS011;6334;48.696;2.114;2023-05-07T02:22:13;0.67;;;0.67;;
12535;SDS011;6334;48.696;2.114;2023-05-07T02:24:44;1.57;;;1.00;;
12535;SDS011;6334;48.696;2.114;2023-05-07T02:27:14;2.66;;;0.76;;
12535;SDS011;6334;48.696;2.114;2023-05-07T02:29:43;1.23;;;1.03;;
12535;SDS011;6334;48.696;2.114;2023-05-07T02:32:14;4.30;;;1.00;;
12535;SDS011;6334;48.696;2.114;2023-05-07T02:34:46;1.00;;;0.90;;
12535;SDS011;6334;48.696;2.114;2023-05-07T02:37:15;0.53;;;0.53;;
12535;SDS011;6334;48.696;2.114;2023-05-07T02:39:47;1.07;;;0.97;;
12535;SDS011;6334;48.696;2.114;2023-05-07T02:42:18;2.43;;;1.40;;
12535;SDS011;6334;48.696;2.114;2023-05-07T02:44:50;1.13;;;1.03;;
12535;SDS011;6334;48.696;2.114;2023-05-07T02:47:20;0.68;;;0.68;;
12535;SDS011;6334;48.696;2.114;2023-05-07T02:49:52;1.23;;;0.90;;
12535;SDS011;6334;48.696;2.114;2023-05-07T02:52:22;1.20;;;0.97;;
12535;SDS011;6334;48.696;2.114;2023-05-07T02:54:54;1.07;;;1.03;;
12535;SDS011;6334;48.696;2.114;2023-05-07T02:57:26;2.23;;;0.70;;
12535;SDS011;6334;48.696;2.114;2023-05-07T02:59:57;0.70;;;0.70;;
12535;SDS011;6334;48.696;2.114;2023-05-07T03:02:28;0.80;;;0.80;;
12535;SDS011;6334;48.696;2.114;2023-05-07T03:04:59;1.92;;;1.00;;
12535;SDS011;6334;48.696;2.114;2023-05-07T03:07:30;0.73;;;0.73;;
12535;SDS011;6334;48.696;2.114;2023-05-07T03:10:00;1.47;;;1.10;;
12535;SDS011;6334;48.696;2.114;2023-05-07T03:12:31;1.23;;;0.95;;
12535;SDS011;6334;48.696;2.114;2023-05-07T03:15:01;0.80;;;0.80;;
12535;SDS011;6334;48.696;2.114;2023-05-07T03:17:33;0.94;;;0.46;;
12535;SDS011;6334;48.696;2.114;2023-05-07T03:20:03;1.05;;;1.00;;
12535;SDS011;6334;48.696;2.114;2023-05-07T03:22:33;1.07;;;1.03;;
12535;SDS011;6334;48.696;2.114;2023-05-07T03:25:04;2.37;;;0.80;;
12535;SDS011;6334;48.696;2.114;2023-05-07T03:27:35;1.27;;;1.17;;
12535;SDS011;6334;48.696;2.114;2023-05-07T03:30:05;1.38;;;1.04;;
12535;SDS011;6334;48.696;2.114;2023-05-07T03:32:35;1.97;;;1.33;;
12535;SDS011;6334;48.696;2.114;2023-05-07T03:35:04;0.87;;;0.87;;
12535;SDS011;6334;48.696;2.114;2023-05-07T03:37:35;0.90;;;0.90;;
12535;SDS011;6334;48.696;2.114;2023-05-07T03:40:09;0.78;;;0.78;;
12535;SDS011;6334;48.696;2.114;2023-05-07T03:42:40;1.35;;;1.10;;
12535;SDS011;6334;48.696;2.114;2023-05-07T03:45:10;2.27;;;1.23;;
12535;SDS011;6334;48.696;2.114;2023-05-07T03:47:40;1.50;;;1.40;;
12535;SDS011;6334;48.696;2.114;2023-05-07T03:50:10;1.27;;;1.17;;
12535;SDS011;6334;48.696;2.114;2023-05-07T03:52:43;2.46;;;1.18;;
12535;SDS011;6334;48.696;2.114;2023-05-07T03:55:13;1.12;;;0.80;;
12535;SDS011;6334;48.696;2.114;2023-05-07T03:57:45;2.53;;;0.73;;
12535;SDS011;6334;48.696;2.114;2023-05-07T04:00:16;1.18;;;0.90;;
12535;SDS011;6334;48.696;2.114;2023-05-07T04:02:47;0.68;;;0.57;;
12535;SDS011;6334;48.696;2.114;2023-05-07T04:05:18;1.70;;;0.53;;
12535;SDS011;6334;48.696;2.114;2023-05-07T04:07:49;1.00;;;0.87;;
12535;SDS011;6334;48.696;2.114;2023-05-07T04:10:19;2.10;;;0.80;;
12535;SDS011;6334;48.696;2.114;2023-05-07T04:12:50;1.00;;;0.93;;
12535;SDS011;6334;48.696;2.114;2023-05-07T04:15:20;0.70;;;0.70;;
12535;SDS011;6334;48.696;2.114;2023-05-07T04:17:51;0.83;;;0.83;;
12535;SDS011;6334;48.696;2.114;2023-05-07T04:20:21;0.77;;;0.75;;
12535;SDS011;6334;48.696;2.114;2023-05-07T04:22:51;0.95;;;0.77;;
12535;SDS011;6334;48.696;2.114;2023-05-07T04:25:21;1.10;;;1.04;;
12535;SDS011;6334;48.696;2.114;2023-05-07T04:27:52;1.00;;;1.00;;
12535;SDS011;6334;48.696;2.114;2023-05-07T04:30:22;1.92;;;0.90;;
12535;SDS011;6334;48.696;2.114;2023-05-07T04:32:52;2.37;;;0.80;;
12535;SDS011;6334;48.696;2.114;2023-05-07T04:35:22;4.75;;;0.87;;
12535;SDS011;6334;48.696;2.114;2023-05-07T04:37:52;0.73;;;0.70;;
12535;SDS011;6334;48.696;2.114;2023-05-07T04:40:24;1.15;;;1.05;;
12535;SDS011;6334;48.696;2.114;2023-05-07T04:43:01;1.68;;;0.94;;
12535;SDS011;6334;48.696;2.114;2023-05-07T04:45:32;0.80;;;0.80;;
12535;SDS011;6334;48.696;2.114;2023-05-07T04:48:03;2.17;;;1.00;;
12535;SDS011;6334;48.696;2.114;2023-05-07T04:50:35;2.17;;;0.87;;
12535;SDS011;6334;48.696;2.114;2023-05-07T04:55:40;3.07;;;0.70;;
12535;SDS011;6334;48.696;2.114;2023-05-07T04:58:12;1.33;;;1.07;;
12535;SDS011;6334;48.696;2.114;2023-05-07T05:00:43;0.85;;;0.70;;
12535;SDS011;6334;48.696;2.114;2023-05-07T05:03:13;1.50;;;0.60;;
12535;SDS011;6334;48.696;2.114;2023-05-07T05:05:44;0.70;;;0.70;;
12535;SDS011;6334;48.696;2.114;2023-05-07T05:08:15;2.30;;;0.73;;
12535;SDS011;6334;48.696;2.114;2023-05-07T05:10:46;1.90;;;0.70;;
12535;SDS011;6334;48.696;2.114;2023-05-07T05:13:20;1.67;;;0.60;;
12535;SDS011;6334;48.696;2.114;2023-05-07T05:15:52;1.03;;;0.80;;
12535;SDS011;6334;48.696;2.114;2023-05-07T05:18:23;1.03;;;0.90;;
12535;SDS011;6334;48.696;2.114;2023-05-07T05:20:53;2.00;;;0.90;;
12535;SDS011;6334;48.696;2.114;2023-05-07T05:23:24;2.30;;;1.10;;
12535;SDS011;6334;48.696;2.114;2023-05-07T05:25:57;0.70;;;0.57;;
12535;SDS011;6334;48.696;2.114;2023-05-07T05:28:27;0.60;;;0.60;;
12535;SDS011;6334;48.696;2.114;2023-05-07T05:30:59;0.70;;;0.60;;
12535;SDS011;6334;48.696;2.114;2023-05-07T05:33:30;0.70;;;0.70;;
12535;SDS011;6334;48.696;2.114;2023-05-07T05:36:02;1.88;;;0.98;;
12535;SDS011;6334;48.696;2.114;2023-05-07T05:38:33;0.70;;;0.70;;
12535;SDS011;6334;48.696;2.114;2023-05-07T05:41:04;0.63;;;0.60;;
12535;SDS011;6334;48.696;2.114;2023-05-07T05:43:35;2.90;;;1.10;;
12535;SDS011;6334;48.696;2.114;2023-05-07T05:46:05;1.75;;;0.80;;
12535;SDS011;6334;48.696;2.114;2023-05-07T05:48:36;0.70;;;0.70;;
12535;SDS011;6334;48.696;2.114;2023-05-07T05:51:05;1.23;;;1.12;;
12535;SDS011;6334;48.696;2.114;2023-05-07T05:53:35;2.20;;;0.97;;
12535;SDS011;6334;48.696;2.114;2023-05-07T05:56:06;1.93;;;0.83;;
12535;SDS011;6334;48.696;2.114;2023-05-07T05:58:36;1.07;;;0.63;;
12535;SDS011;6334;48.696;2.114;2023-05-07T06:01:06;1.37;;;0.70;;
12535;SDS011;6334;48.696;2.114;2023-05-07T06:03:37;1.70;;;0.90;;
12535;SDS011;6334;48.696;2.114;2023-05-07T06:06:06;3.07;;;1.07;;
12535;SDS011;6334;48.696;2.114;2023-05-07T06:08:39;0.62;;;0.62;;
12535;SDS011;6334;48.696;2.114;2023-05-07T06:11:10;2.30;;;1.30;;
12535;SDS011;6334;48.696;2.114;2023-05-07T06:13:40;0.63;;;0.63;;
12535;SDS011;6334;48.696;2.114;2023-05-07T06:16:10;2.47;;;1.30;;
12535;SDS011;6334;48.696;2.114;2023-05-07T06:18:41;0.80;;;0.60;;
12535;SDS011;6334;48.696;2.114;2023-05-07T06:21:13;1.33;;;0.97;;
12535;SDS011;6334;48.696;2.114;2023-05-07T06:23:43;1.70;;;1.60;;
12535;SDS011;6334;48.696;2.114;2023-05-07T06:26:14;1.52;;;1.42;;
12535;SDS011;6334;48.696;2.114;2023-05-07T06:28:45;1.37;;;1.27;;
12535;SDS011;6334;48.696;2.114;2023-05-07T06:31:16;2.17;;;1.87;;
12535;SDS011;6334;48.696;2.114;2023-05-07T06:33:46;3.83;;;1.43;;
12535;SDS011;6334;48.696;2.114;2023-05-07T06:36:16;1.17;;;1.17;;
12535;SDS011;6334;48.696;2.114;2023-05-07T06:38:46;1.42;;;1.42;;
12535;SDS011;6334;48.696;2.114;2023-05-07T06:41:16;0.80;;;0.80;;
12535;SDS011;6334;48.696;2.114;2023-05-07T06:46:21;1.07;;;1.03;;
12535;SDS011;6334;48.696;2.114;2023-05-07T06:48:51;2.40;;;1.23;;
12535;SDS011;6334;48.696;2.114;2023-05-07T06:51:22;1.13;;;1.13;;
12535;SDS011;6334;48.696;2.114;2023-05-07T06:53:52;0.90;;;0.73;;
12535;SDS011;6334;48.696;2.114;2023-05-07T06:56:25;1.00;;;1.00;;
12535;SDS011;6334;48.696;2.114;2023-05-07T06:58:57;1.40;;;1.30;;
12535;SDS011;6334;48.696;2.114;2023-05-07T07:01:30;1.30;;;1.14;;
12535;SDS011;6334;48.696;2.114;2023-05-07T07:04:00;0.80;;;0.80;;
12535;SDS011;6334;48.696;2.114;2023-05-07T07:06:34;1.41;;;1.04;;
12535;SDS011;6334;48.696;2.114;2023-05-07T07:09:04;1.60;;;1.30;;
12535;SDS011;6334;48.696;2.114;2023-05-07T07:11:34;1.27;;;1.00;;
12535;SDS011;6334;48.696;2.114;2023-05-07T07:14:05;1.37;;;1.27;;
12535;SDS011;6334;48.696;2.114;2023-05-07T07:22:46;0.97;;;0.97;;
12535;SDS011;6334;48.696;2.114;2023-05-07T07:27:51;1.80;;;1.07;;
12535;SDS011;6334;48.696;2.114;2023-05-07T07:30:21;1.43;;;1.17;;
12535;SDS011;6334;48.696;2.114;2023-05-07T07:32:52;1.10;;;1.10;;
12535;SDS011;6334;48.696;2.114;2023-05-07T07:35:22;0.93;;;0.93;;
12535;SDS011;6334;48.696;2.114;2023-05-07T07:37:51;0.50;;;0.50;;
12535;SDS011;6334;48.696;2.114;2023-05-07T07:40:22;0.88;;;0.88;;
12535;SDS011;6334;48.696;2.114;2023-05-07T07:42:57;1.33;;;1.23;;
12535;SDS011;6334;48.696;2.114;2023-05-07T07:49:44;1.23;;;1.12;;
12535;SDS011;6334;48.696;2.114;2023-05-07T07:52:14;1.67;;;1.10;;
12535;SDS011;6334;48.696;2.114;2023-05-07T07:57:28;1.80;;;1.70;;
12535;SDS011;6334;48.696;2.114;2023-05-07T07:59:57;1.80;;;1.20;;
12535;SDS011;6334;48.696;2.114;2023-05-07T08:02:28;1.60;;;1.50;;
12535;SDS011;6334;48.696;2.114;2023-05-07T08:04:59;1.93;;;1.83;;
12535;SDS011;6334;48.696;2.114;2023-05-07T08:07:32;1.80;;;1.70;;
12535;SDS011;6334;48.696;2.114;2023-05-07T08:10:04;1.80;;;1.70;;
12535;SDS011;6334;48.696;2.114;2023-05-07T08:12:36;2.57;;;1.63;;
12535;SDS011;6334;48.696;2.114;2023-05-07T08:15:06;1.77;;;1.67;;
12535;SDS011;6334;48.696;2.114;2023-05-07T08:17:37;4.03;;;1.53;;
12535;SDS011;6334;48.696;2.114;2023-05-07T08:20:07;2.05;;;1.95;;
12535;SDS011;6334;48.696;2.114;2023-05-07T08:22:38;1.52;;;1.42;;
12535;SDS011;6334;48.696;2.114;2023-05-07T08:25:08;3.07;;;2.10;;
12535;SDS011;6334;48.696;2.114;2023-05-07T08:27:40;3.10;;;1.93;;
12535;SDS011;6334;48.696;2.114;2023-05-07T08:30:10;1.90;;;1.80;;
12535;SDS011;6334;48.696;2.114;2023-05-07T08:32:40;2.77;;;2.57;;
12535;SDS011;6334;48.696;2.114;2023-05-07T08:35:10;2.43;;;2.23;;
12535;SDS011;6334;48.696;2.114;2023-05-07T08:37:41;2.70;;;2.17;;
12535;SDS011;6334;48.696;2.114;2023-05-07T08:43:12;2.92;;;2.25;;
12535;SDS011;6334;48.696;2.114;2023-05-07T08:45:42;1.97;;;1.87;;
12535;SDS011;6334;48.696;2.114;2023-05-07T08:48:16;2.30;;;2.19;;
12535;SDS011;6334;48.696;2.114;2023-05-07T08:50:47;3.03;;;2.63;;
12535;SDS011;6334;48.696;2.114;2023-05-07T08:53:17;2.46;;;2.34;;
12535;SDS011;6334;48.696;2.114;2023-05-07T08:55:47;2.72;;;2.52;;
12535;SDS011;6334;48.696;2.114;2023-05-07T08:58:16;4.93;;;2.80;;
12535;SDS011;6334;48.696;2.114;2023-05-07T09:00:46;2.73;;;2.60;;
12535;SDS011;6334;48.696;2.114;2023-05-07T09:03:16;2.40;;;2.30;;
12535;SDS011;6334;48.696;2.114;2023-05-07T09:05:51;2.65;;;2.37;;
12535;SDS011;6334;48.696;2.114;2023-05-07T09:08:24;2.53;;;2.40;;
12535;SDS011;6334;48.696;2.114;2023-05-07T09:10:51;2.20;;;2.10;;
12535;SDS011;6334;48.696;2.114;2023-05-07T09:13:21;2.67;;;2.47;;
12535;SDS011;6334;48.696;2.114;2023-05-07T09:15:51;2.40;;;2.30;;
12535;SDS011;6334;48.696;2.114;2023-05-07T09:18:24;3.40;;;2.28;;
12535;SDS011;6334;48.696;2.114;2023-05-07T09:20:54;2.35;;;2.17;;
12535;SDS011;6334;48.696;2.114;2023-05-07T09:23:24;2.30;;;2.20;;
12535;SDS011;6334;48.696;2.114;2023-05-07T09:25:54;2.63;;;2.20;;
12535;SDS011;6334;48.696;2.114;2023-05-07T09:28:25;2.70;;;2.27;;
12535;SDS011;6334;48.696;2.114;2023-05-07T09:30:56;2.53;;;2.23;;
12535;SDS011;6334;48.696;2.114;2023-05-07T09:36:08;2.80;;;2.60;;
12535;SDS011;6334;48.696;2.114;2023-05-07T09:38:34;2.30;;;2.20;;
12535;SDS011;6334;48.696;2.114;2023-05-07T09:41:08;2.57;;;2.30;;
12535;SDS011;6334;48.696;2.114;2023-05-07T09:43:36;3.67;;;2.23;;
12535;SDS011;6334;48.696;2.114;2023-05-07T09:46:11;2.00;;;1.90;;
12535;SDS011;6334;48.696;2.114;2023-05-07T09:48:38;2.47;;;2.10;;
12535;SDS011;6334;48.696;2.114;2023-05-07T09:53:40;2.03;;;1.93;;
12535;SDS011;6334;48.696;2.114;2023-05-07T09:56:11;1.93;;;1.83;;
12535;SDS011;6334;48.696;2.114;2023-05-07T09:58:41;2.70;;;1.90;;
12535;SDS011;6334;48.696;2.114;2023-05-07T10:01:12;2.57;;;2.37;;
12535;SDS011;6334;48.696;2.114;2023-05-07T10:03:42;3.00;;;2.10;;
12535;SDS011;6334;48.696;2.114;2023-05-07T10:06:12;2.37;;;2.03;;
12535;SDS011;6334;48.696;2.114;2023-05-07T10:08:43;2.07;;;1.93;;
12535;SDS011;6334;48.696;2.114;2023-05-07T10:11:13;1.87;;;1.77;;
12535;SDS011;6334;48.696;2.114;2023-05-07T10:13:44;2.27;;;2.07;;
12535;SDS011;6334;48.696;2.114;2023-05-07T10:16:14;2.83;;;2.10;;
12535;SDS011;6334;48.696;2.114;2023-05-07T10:18:45;2.53;;;2.33;;
12535;SDS011;6334;48.696;2.114;2023-05-07T10:21:19;1.57;;;1.57;;
12535;SDS011;6334;48.696;2.114;2023-05-07T10:23:53;1.60;;;1.50;;
12535;SDS011;6334;48.696;2.114;2023-05-07T10:26:28;2.10;;;2.00;;
12535;SDS011;6334;48.696;2.114;2023-05-07T10:29:05;2.17;;;2.00;;
12535;SDS011;6334;48.696;2.114;2023-05-07T10:34:08;2.17;;;2.07;;
12535;SDS011;6334;48.696;2.114;2023-05-07T10:36:45;2.40;;;2.20;;
12535;SDS011;6334;48.696;2.114;2023-05-07T10:39:14;3.00;;;2.50;;
12535;SDS011;6334;48.696;2.114;2023-05-07T10:41:46;2.57;;;1.97;;
12535;SDS011;6334;48.696;2.114;2023-05-07T10:44:26;2.60;;;2.33;;
12535;SDS011;6334;48.696;2.114;2023-05-07T10:47:04;2.60;;;2.40;;
12535;SDS011;6334;48.696;2.114;2023-05-07T10:49:38;2.73;;;2.53;;
12535;SDS011;6334;48.696;2.114;2023-05-07T10:52:16;3.47;;;3.17;;
12535;SDS011;6334;48.696;2.114;2023-05-07T10:55:24;2.77;;;2.57;;
12535;SDS011;6334;48.696;2.114;2023-05-07T10:57:50;4.47;;;2.37;;
12535;SDS011;6334;48.696;2.114;2023-05-07T11:05:31;3.17;;;2.80;;
12535;SDS011;6334;48.696;2.114;2023-05-07T11:08:01;2.63;;;2.43;;
12535;SDS011;6334;48.696;2.114;2023-05-07T11:10:49;3.13;;;2.17;;
12535;SDS011;6334;48.696;2.114;2023-05-07T11:13:18;3.10;;;2.45;;
12535;SDS011;6334;48.696;2.114;2023-05-07T11:15:48;2.77;;;2.57;;
12535;SDS011;6334;48.696;2.114;2023-05-07T11:18:18;2.77;;;2.57;;
12535;SDS011;6334;48.696;2.114;2023-05-07T11:20:51;2.77;;;2.57;;
12535;SDS011;6334;48.696;2.114;2023-05-07T11:26:05;2.33;;;2.20;;
12535;SDS011;6334;48.696;2.114;2023-05-07T11:28:38;2.60;;;2.40;;
12535;SDS011;6334;48.696;2.114;2023-05-07T11:31:07;2.47;;;2.27;;
12535;SDS011;6334;48.696;2.114;2023-05-07T11:36:13;2.67;;;2.50;;
12535;SDS011;6334;48.696;2.114;2023-05-07T11:38:42;2.70;;;2.27;;
12535;SDS011;6334;48.696;2.114;2023-05-07T11:41:12;2.40;;;2.20;;
12535;SDS011;6334;48.696;2.114;2023-05-07T11:43:56;2.63;;;2.43;;
12535;SDS011;6334;48.696;2.114;2023-05-07T11:46:26;4.03;;;2.63;;
12535;SDS011;6334;48.696;2.114;2023-05-07T11:48:56;3.30;;;2.63;;
12535;SDS011;6334;48.696;2.114;2023-05-07T11:51:25;2.77;;;2.57;;
12535;SDS011;6334;48.696;2.114;2023-05-07T11:53:55;4.80;;;2.80;;
12535;SDS011;6334;48.696;2.114;2023-05-07T11:56:25;5.17;;;2.80;;
12535;SDS011;6334;48.696;2.114;2023-05-07T11:58:56;2.20;;;2.10;;
12535;SDS011;6334;48.696;2.114;2023-05-07T12:01:26;2.43;;;2.23;;
12535;SDS011;6334;48.696;2.114;2023-05-07T12:03:57;1.73;;;1.63;;
12535;SDS011;6334;48.696;2.114;2023-05-07T12:06:27;1.73;;;1.67;;
12535;SDS011;6334;48.696;2.114;2023-05-07T12:08:57;3.00;;;1.97;;
12535;SDS011;6334;48.696;2.114;2023-05-07T12:11:28;2.03;;;1.80;;
12535;SDS011;6334;48.696;2.114;2023-05-07T12:13:58;2.60;;;2.00;;
12535;SDS011;6334;48.696;2.114;2023-05-07T12:16:28;3.83;;;2.10;;
12535;SDS011;6334;48.696;2.114;2023-05-07T12:18:59;2.37;;;2.27;;
12535;SDS011;6334;48.696;2.114;2023-05-07T12:21:29;2.60;;;2.40;;
12535;SDS011;6334;48.696;2.114;2023-05-07T12:24:00;2.23;;;2.03;;
12535;SDS011;6334;48.696;2.114;2023-05-07T12:26:30;2.97;;;2.70;;
12535;SDS011;6334;48.696;2.114;2023-05-07T12:28:59;2.73;;;2.27;;
12535;SDS011;6334;48.696;2.114;2023-05-07T12:31:30;2.70;;;2.50;;
12535;SDS011;6334;48.696;2.114;2023-05-07T12:34:00;2.50;;;2.30;;
12535;SDS011;6334;48.696;2.114;2023-05-07T12:36:39;2.97;;;2.60;;
12535;SDS011;6334;48.696;2.114;2023-05-07T12:39:09;2.83;;;2.43;;
12535;SDS011;6334;48.696;2.114;2023-05-07T12:41:52;2.93;;;2.27;;
12535;SDS011;6334;48.696;2.114;2023-05-07T12:44:23;3.00;;;2.63;;
12535;SDS011;6334;48.696;2.114;2023-05-07T12:46:54;2.57;;;2.47;;
12535;SDS011;6334;48.696;2.114;2023-05-07T12:49:24;3.10;;;2.90;;
12535;SDS011;6334;48.696;2.114;2023-05-07T12:51:55;2.77;;;2.57;;
12535;SDS011;6334;48.696;2.114;2023-05-07T12:54:32;3.30;;;2.90;;
12535;SDS011;6334;48.696;2.114;2023-05-07T12:57:02;4.07;;;3.20;;
12535;SDS011;6334;48.696;2.114;2023-05-07T13:02:09;2.97;;;2.77;;
12535;SDS011;6334;48.696;2.114;2023-05-07T13:04:39;2.87;;;2.73;;
12535;SDS011;6334;48.696;2.114;2023-05-07T13:07:09;3.10;;;2.90;;
12535;SDS011;6334;48.696;2.114;2023-05-07T13:09:39;4.20;;;2.97;;
12535;SDS011;6334;48.696;2.114;2023-05-07T13:12:11;3.20;;;2.90;;
12535;SDS011;6334;48.696;2.114;2023-05-07T13:14:41;3.40;;;3.10;;
12535;SDS011;6334;48.696;2.114;2023-05-07T13:17:12;3.40;;;3.10;;
12535;SDS011;6334;48.696;2.114;2023-05-07T13:19:42;3.73;;;3.10;;
12535;SDS011;6334;48.696;2.114;2023-05-07T13:22:13;5.20;;;3.30;;
12535;SDS011;6334;48.696;2.114;2023-05-07T13:24:43;7.43;;;3.53;;
12535;SDS011;6334;48.696;2.114;2023-05-07T13:27:15;3.30;;;3.03;;
12535;SDS011;6334;48.696;2.114;2023-05-07T13:29:45;3.13;;;2.87;;
12535;SDS011;6334;48.696;2.114;2023-05-07T13:32:15;3.27;;;3.07;;
12535;SDS011;6334;48.696;2.114;2023-05-07T13:34:46;4.33;;;2.83;;
12535;SDS011;6334;48.696;2.114;2023-05-07T13:37:16;5.30;;;3.43;;
12535;SDS011;6334;48.696;2.114;2023-05-07T13:39:46;3.50;;;3.30;;
12535;SDS011;6334;48.696;2.114;2023-05-07T13:42:16;3.83;;;3.20;;
12535;SDS011;6334;48.696;2.114;2023-05-07T13:44:46;3.80;;;3.43;;
12535;SDS011;6334;48.696;2.114;2023-05-07T13:47:16;3.53;;;3.13;;
12535;SDS011;6334;48.696;2.114;2023-05-07T13:49:46;3.13;;;2.93;;
12535;SDS011;6334;48.696;2.114;2023-05-07T13:52:16;2.93;;;2.73;;
12535;SDS011;6334;48.696;2.114;2023-05-07T13:54:47;3.30;;;3.10;;
12535;SDS011;6334;48.696;2.114;2023-05-07T13:57:18;3.10;;;2.90;;
12535;SDS011;6334;48.696;2.114;2023-05-07T13:59:48;3.00;;;2.67;;
12535;SDS011;6334;48.696;2.114;2023-05-07T14:02:18;3.87;;;3.47;;
12535;SDS011;6334;48.696;2.114;2023-05-07T14:04:49;2.83;;;2.63;;
12535;SDS011;6334;48.696;2.114;2023-05-07T14:07:19;2.97;;;2.77;;
12535;SDS011;6334;48.696;2.114;2023-05-07T14:09:50;2.80;;;2.60;;
12535;SDS011;6334;48.696;2.114;2023-05-07T14:12:20;4.37;;;3.40;;
12535;SDS011;6334;48.696;2.114;2023-05-07T14:14:50;5.00;;;3.30;;
12535;SDS011;6334;48.696;2.114;2023-05-07T14:17:21;2.83;;;2.63;;
12535;SDS011;6334;48.696;2.114;2023-05-07T14:19:54;2.57;;;2.20;;
12535;SDS011;6334;48.696;2.114;2023-05-07T14:22:25;2.77;;;2.30;;
12535;SDS011;6334;48.696;2.114;2023-05-07T14:24:55;2.70;;;2.10;;
12535;SDS011;6334;48.696;2.114;2023-05-07T14:27:25;3.50;;;2.60;;
12535;SDS011;6334;48.696;2.114;2023-05-07T14:29:56;3.67;;;2.37;;
12535;SDS011;6334;48.696;2.114;2023-05-07T14:32:26;2.90;;;2.60;;
12535;SDS011;6334;48.696;2.114;2023-05-07T14:34:56;3.53;;;2.47;;
12535;SDS011;6334;48.696;2.114;2023-05-07T14:37:26;2.90;;;2.53;;
12535;SDS011;6334;48.696;2.114;2023-05-07T14:39:56;2.40;;;2.23;;
12535;SDS011;6334;48.696;2.114;2023-05-07T14:42:27;4.00;;;2.60;;
12535;SDS011;6334;48.696;2.114;2023-05-07T14:44:57;3.87;;;2.53;;
12535;SDS011;6334;48.696;2.114;2023-05-07T14:47:27;2.50;;;2.30;;
12535;SDS011;6334;48.696;2.114;2023-05-07T14:49:57;2.30;;;2.20;;
12535;SDS011;6334;48.696;2.114;2023-05-07T14:52:28;10.73;;;3.13;;
12535;SDS011;6334;48.696;2.114;2023-05-07T14:54:58;3.13;;;2.83;;
12535;SDS011;6334;48.696;2.114;2023-05-07T14:57:36;2.91;;;2.67;;
12535;SDS011;6334;48.696;2.114;2023-05-07T15:00:06;3.17;;;2.85;;
12535;SDS011;6334;48.696;2.114;2023-05-07T15:02:36;3.00;;;2.80;;
12535;SDS011;6334;48.696;2.114;2023-05-07T15:05:06;3.37;;;3.17;;
12535;SDS011;6334;48.696;2.114;2023-05-07T15:07:37;3.60;;;3.30;;
12535;SDS011;6334;48.696;2.114;2023-05-07T15:10:07;2.97;;;2.73;;
12535;SDS011;6334;48.696;2.114;2023-05-07T15:12:37;4.40;;;2.97;;
12535;SDS011;6334;48.696;2.114;2023-05-07T15:15:08;3.30;;;2.97;;
12535;SDS011;6334;48.696;2.114;2023-05-07T15:17:38;3.93;;;3.60;;
12535;SDS011;6334;48.696;2.114;2023-05-07T15:20:07;3.37;;;3.07;;
12535;SDS011;6334;48.696;2.114;2023-05-07T15:22:37;3.37;;;3.07;;
12535;SDS011;6334;48.696;2.114;2023-05-07T15:25:09;3.70;;;3.17;;
12535;SDS011;6334;48.696;2.114;2023-05-07T15:27:38;3.80;;;2.70;;
12535;SDS011;6334;48.696;2.114;2023-05-07T15:30:08;4.87;;;3.43;;
12535;SDS011;6334;48.696;2.114;2023-05-07T15:32:37;2.93;;;2.73;;
12535;SDS011;6334;48.696;2.114;2023-05-07T15:35:09;3.80;;;3.07;;
12535;SDS011;6334;48.696;2.114;2023-05-07T15:37:38;5.47;;;3.30;;
12535;SDS011;6334;48.696;2.114;2023-05-07T15:40:09;4.50;;;3.37;;
12535;SDS011;6334;48.696;2.114;2023-05-07T15:42:38;3.47;;;3.17;;
12535;SDS011;6334;48.696;2.114;2023-05-07T15:45:09;3.53;;;3.20;;
12535;SDS011;6334;48.696;2.114;2023-05-07T15:47:38;5.13;;;4.17;;
12535;SDS011;6334;48.696;2.114;2023-05-07T15:50:09;3.37;;;3.07;;
12535;SDS011;6334;48.696;2.114;2023-05-07T15:52:55;2.63;;;2.43;;
12535;SDS011;6334;48.696;2.114;2023-05-07T15:55:24;2.67;;;2.47;;
12535;SDS011;6334;48.696;2.114;2023-05-07T15:57:54;4.87;;;2.60;;
12535;SDS011;6334;48.696;2.114;2023-05-07T16:00:26;4.83;;;2.50;;
12535;SDS011;6334;48.696;2.114;2023-05-07T16:02:55;2.67;;;2.47;;
12535;SDS011;6334;48.696;2.114;2023-05-07T16:05:27;2.43;;;2.23;;
12535;SDS011;6334;48.696;2.114;2023-05-07T16:07:56;3.70;;;2.90;;